sensor_id;sensor_type;location;lat;lon;timestamp;P1;durP1;ratioP1;P2;durP2;ratioP2
30998;SDS011;20549;50.042;8.968;2022-07-01T00:01:51;0.93;;;0.60;;
30998;SDS011;20549;50.042;8.968;2022-07-01T00:04:18;1.17;;;0.78;;
30998;SDS011;20549;50.042;8.968;2022-07-01T00:06:44;1.37;;;0.40;;
30998;SDS011;20549;50.042;8.968;2022-07-01T00:09:11;0.75;;;0.20;;
30998;SDS011;20549;50.042;8.968;2022-07-01T00:11:38;0.42;;;0.40;;
30998;SDS011;20549;50.042;8.968;2022-07-01T00:14:04;0.40;;;0.40;;
30998;SDS011;20549;50.042;8.968;2022-07-01T00:16:31;0.85;;;0.55;;
30998;SDS011;20549;50.042;8.968;2022-07-01T00:18:57;0.50;;;0.50;;
30998;SDS011;20549;50.042;8.968;2022-07-01T00:21:24;0.23;;;0.23;;
30998;SDS011;20549;50.042;8.968;2022-07-01T00:23:51;0.72;;;0.30;;
30998;SDS011;20549;50.042;8.968;2022-07-01T00:26:17;0.42;;;0.30;;
30998;SDS011;20549;50.042;8.968;2022-07-01T00:28:44;1.70;;;0.70;;
30998;SDS011;20549;50.042;8.968;2022-07-01T00:31:10;0.62;;;0.40;;
30998;SDS011;20549;50.042;8.968;2022-07-01T00:33:37;0.33;;;0.33;;
30998;SDS011;20549;50.042;8.968;2022-07-01T00:36:04;0.40;;;0.40;;
30998;SDS011;20549;50.042;8.968;2022-07-01T00:38:30;1.17;;;0.42;;
30998;SDS011;20549;50.042;8.968;2022-07-01T00:40:57;0.40;;;0.40;;
30998;SDS011;20549;50.042;8.968;2022-07-01T00:43:23;0.50;;;0.50;;
30998;SDS011;20549;50.042;8.968;2022-07-01T00:45:50;0.78;;;0.40;;
30998;SDS011;20549;50.042;8.968;2022-07-01T00:48:17;1.20;;;0.50;;
30998;SDS011;20549;50.042;8.968;2022-07-01T00:50:43;0.30;;;0.30;;
30998;SDS011;20549;50.042;8.968;2022-07-01T00:53:10;0.40;;;0.40;;
30998;SDS011;20549;50.042;8.968;2022-07-01T00:55:36;0.47;;;0.30;;
30998;SDS011;20549;50.042;8.968;2022-07-01T00:58:03;0.40;;;0.37;;
30998;SDS011;20549;50.042;8.968;2022-07-01T01:00:30;0.30;;;0.30;;
30998;SDS011;20549;50.042;8.968;2022-07-01T01:02:56;0.88;;;0.30;;
30998;SDS011;20549;50.042;8.968;2022-07-01T01:05:23;0.90;;;0.55;;
30998;SDS011;20549;50.042;8.968;2022-07-01T01:07:49;0.40;;;0.28;;
30998;SDS011;20549;50.042;8.968;2022-07-01T01:10:16;0.33;;;0.33;;
30998;SDS011;20549;50.042;8.968;2022-07-01T01:12:43;0.30;;;0.30;;
30998;SDS011;20549;50.042;8.968;2022-07-01T01:15:09;0.55;;;0.55;;
30998;SDS011;20549;50.042;8.968;2022-07-01T01:17:36;0.30;;;0.30;;
30998;SDS011;20549;50.042;8.968;2022-07-01T01:20:02;0.35;;;0.35;;
30998;SDS011;20549;50.042;8.968;2022-07-01T01:22:29;0.42;;;0.30;;
30998;SDS011;20549;50.042;8.968;2022-07-01T01:24:55;0.25;;;0.25;;
30998;SDS011;20549;50.042;8.968;2022-07-01T01:27:22;2.08;;;0.50;;
30998;SDS011;20549;50.042;8.968;2022-07-01T01:29:49;1.00;;;0.57;;
30998;SDS011;20549;50.042;8.968;2022-07-01T01:32:15;0.17;;;0.17;;
30998;SDS011;20549;50.042;8.968;2022-07-01T01:34:42;0.40;;;0.40;;
30998;SDS011;20549;50.042;8.968;2022-07-01T01:37:08;0.75;;;0.20;;
30998;SDS011;20549;50.042;8.968;2022-07-01T01:39:35;0.65;;;0.37;;
30998;SDS011;20549;50.042;8.968;2022-07-01T01:42:04;0.35;;;0.35;;
30998;SDS011;20549;50.042;8.968;2022-07-01T01:44:31;0.20;;;0.20;;
30998;SDS011;20549;50.042;8.968;2022-07-01T01:46:57;0.30;;;0.30;;
30998;SDS011;20549;50.042;8.968;2022-07-01T01:49:24;0.40;;;0.40;;
30998;SDS011;20549;50.042;8.968;2022-07-01T01:51:51;0.30;;;0.30;;
30998;SDS011;20549;50.042;8.968;2022-07-01T01:54:17;0.40;;;0.20;;
30998;SDS011;20549;50.042;8.968;2022-07-01T01:56:44;0.50;;;0.42;;
30998;SDS011;20549;50.042;8.968;2022-07-01T01:59:10;0.28;;;0.28;;
30998;SDS011;20549;50.042;8.968;2022-07-01T02:01:37;0.75;;;0.55;;
30998;SDS011;20549;50.042;8.968;2022-07-01T02:04:04;0.30;;;0.30;;
30998;SDS011;20549;50.042;8.968;2022-07-01T02:06:30;0.40;;;0.40;;
30998;SDS011;20549;50.042;8.968;2022-07-01T02:08:57;0.40;;;0.40;;
30998;SDS011;20549;50.042;8.968;2022-07-01T02:11:23;0.23;;;0.23;;
30998;SDS011;20549;50.042;8.968;2022-07-01T02:13:50;0.33;;;0.30;;
30998;SDS011;20549;50.042;8.968;2022-07-01T02:16:17;0.60;;;0.60;;
30998;SDS011;20549;50.042;8.968;2022-07-01T02:18:43;1.17;;;0.60;;
30998;SDS011;20549;50.042;8.968;2022-07-01T02:21:10;0.30;;;0.30;;
30998;SDS011;20549;50.042;8.968;2022-07-01T02:23:37;0.40;;;0.40;;
30998;SDS011;20549;50.042;8.968;2022-07-01T02:26:03;0.37;;;0.37;;
30998;SDS011;20549;50.042;8.968;2022-07-01T02:28:29;0.20;;;0.20;;
30998;SDS011;20549;50.042;8.968;2022-07-01T02:30:56;0.47;;;0.40;;
30998;SDS011;20549;50.042;8.968;2022-07-01T02:33:23;0.40;;;0.40;;
30998;SDS011;20549;50.042;8.968;2022-07-01T02:35:49;0.53;;;0.50;;
30998;SDS011;20549;50.042;8.968;2022-07-01T02:38:16;0.85;;;0.40;;
30998;SDS011;20549;50.042;8.968;2022-07-01T02:40:42;0.23;;;0.23;;
30998;SDS011;20549;50.042;8.968;2022-07-01T02:43:09;0.60;;;0.42;;
30998;SDS011;20549;50.042;8.968;2022-07-01T02:45:36;0.45;;;0.40;;
30998;SDS011;20549;50.042;8.968;2022-07-01T02:48:02;0.30;;;0.30;;
30998;SDS011;20549;50.042;8.968;2022-07-01T02:50:29;0.50;;;0.50;;
30998;SDS011;20549;50.042;8.968;2022-07-01T02:52:55;0.30;;;0.30;;
30998;SDS011;20549;50.042;8.968;2022-07-01T02:55:22;0.53;;;0.53;;
30998;SDS011;20549;50.042;8.968;2022-07-01T02:57:49;0.28;;;0.28;;
30998;SDS011;20549;50.042;8.968;2022-07-01T03:00:15;0.50;;;0.50;;
30998;SDS011;20549;50.042;8.968;2022-07-01T03:02:42;0.50;;;0.50;;
30998;SDS011;20549;50.042;8.968;2022-07-01T03:05:08;0.33;;;0.33;;
30998;SDS011;20549;50.042;8.968;2022-07-01T03:07:35;0.78;;;0.50;;
30998;SDS011;20549;50.042;8.968;2022-07-01T03:10:03;0.47;;;0.47;;
30998;SDS011;20549;50.042;8.968;2022-07-01T03:12:28;0.50;;;0.50;;
30998;SDS011;20549;50.042;8.968;2022-07-01T03:14:55;0.82;;;0.40;;
30998;SDS011;20549;50.042;8.968;2022-07-01T03:17:22;0.30;;;0.30;;
30998;SDS011;20549;50.042;8.968;2022-07-01T03:19:48;0.63;;;0.50;;
30998;SDS011;20549;50.042;8.968;2022-07-01T03:22:14;0.47;;;0.40;;
30998;SDS011;20549;50.042;8.968;2022-07-01T03:24:41;0.45;;;0.45;;
30998;SDS011;20549;50.042;8.968;2022-07-01T03:27:08;1.87;;;0.50;;
30998;SDS011;20549;50.042;8.968;2022-07-01T03:29:34;0.40;;;0.40;;
30998;SDS011;20549;50.042;8.968;2022-07-01T03:32:01;1.93;;;0.50;;
30998;SDS011;20549;50.042;8.968;2022-07-01T03:34:27;1.25;;;0.55;;
30998;SDS011;20549;50.042;8.968;2022-07-01T03:36:54;0.53;;;0.40;;
30998;SDS011;20549;50.042;8.968;2022-07-01T03:39:21;1.35;;;0.40;;
30998;SDS011;20549;50.042;8.968;2022-07-01T03:41:47;0.70;;;0.70;;
30998;SDS011;20549;50.042;8.968;2022-07-01T03:44:14;0.70;;;0.50;;
30998;SDS011;20549;50.042;8.968;2022-07-01T03:46:40;0.50;;;0.50;;
30998;SDS011;20549;50.042;8.968;2022-07-01T03:49:07;0.68;;;0.68;;
30998;SDS011;20549;50.042;8.968;2022-07-01T03:51:33;0.88;;;0.45;;
30998;SDS011;20549;50.042;8.968;2022-07-01T03:54:00;0.98;;;0.62;;
30998;SDS011;20549;50.042;8.968;2022-07-01T03:56:45;0.33;;;0.33;;
30998;SDS011;20549;50.042;8.968;2022-07-01T03:59:11;1.40;;;0.60;;
30998;SDS011;20549;50.042;8.968;2022-07-01T04:01:38;0.60;;;0.45;;
30998;SDS011;20549;50.042;8.968;2022-07-01T04:04:04;0.70;;;0.40;;
30998;SDS011;20549;50.042;8.968;2022-07-01T04:06:31;0.45;;;0.45;;
30998;SDS011;20549;50.042;8.968;2022-07-01T04:08:58;0.70;;;0.60;;
30998;SDS011;20549;50.042;8.968;2022-07-01T04:11:24;0.60;;;0.60;;
30998;SDS011;20549;50.042;8.968;2022-07-01T04:13:51;0.82;;;0.72;;
30998;SDS011;20549;50.042;8.968;2022-07-01T04:16:17;0.60;;;0.60;;
30998;SDS011;20549;50.042;8.968;2022-07-01T04:18:44;0.45;;;0.45;;
30998;SDS011;20549;50.042;8.968;2022-07-01T04:21:10;0.70;;;0.70;;
30998;SDS011;20549;50.042;8.968;2022-07-01T04:23:55;0.80;;;0.80;;
30998;SDS011;20549;50.042;8.968;2022-07-01T04:26:25;1.57;;;1.10;;
30998;SDS011;20549;50.042;8.968;2022-07-01T04:28:52;0.78;;;0.78;;
30998;SDS011;20549;50.042;8.968;2022-07-01T04:31:18;0.57;;;0.57;;
30998;SDS011;20549;50.042;8.968;2022-07-01T04:33:45;0.80;;;0.60;;
30998;SDS011;20549;50.042;8.968;2022-07-01T04:36:11;1.07;;;0.90;;
30998;SDS011;20549;50.042;8.968;2022-07-01T04:38:38;0.78;;;0.78;;
30998;SDS011;20549;50.042;8.968;2022-07-01T04:41:04;0.60;;;0.60;;
30998;SDS011;20549;50.042;8.968;2022-07-01T04:43:49;0.57;;;0.57;;
30998;SDS011;20549;50.042;8.968;2022-07-01T04:46:15;0.82;;;0.82;;
30998;SDS011;20549;50.042;8.968;2022-07-01T04:48:42;0.57;;;0.57;;
30998;SDS011;20549;50.042;8.968;2022-07-01T04:51:09;0.55;;;0.50;;
30998;SDS011;20549;50.042;8.968;2022-07-01T04:53:35;0.65;;;0.65;;
30998;SDS011;20549;50.042;8.968;2022-07-01T04:56:02;1.12;;;0.85;;
30998;SDS011;20549;50.042;8.968;2022-07-01T04:58:28;0.50;;;0.50;;
30998;SDS011;20549;50.042;8.968;2022-07-01T05:00:55;0.55;;;0.55;;
30998;SDS011;20549;50.042;8.968;2022-07-01T05:03:22;1.75;;;0.80;;
30998;SDS011;20549;50.042;8.968;2022-07-01T05:05:48;0.85;;;0.80;;
30998;SDS011;20549;50.042;8.968;2022-07-01T05:08:15;1.00;;;0.77;;
30998;SDS011;20549;50.042;8.968;2022-07-01T05:10:41;0.65;;;0.65;;
30998;SDS011;20549;50.042;8.968;2022-07-01T05:13:08;0.60;;;0.60;;
30998;SDS011;20549;50.042;8.968;2022-07-01T05:15:35;0.95;;;0.62;;
30998;SDS011;20549;50.042;8.968;2022-07-01T05:18:01;0.50;;;0.50;;
30998;SDS011;20549;50.042;8.968;2022-07-01T05:20:46;0.62;;;0.62;;
30998;SDS011;20549;50.042;8.968;2022-07-01T05:23:31;0.90;;;0.72;;
30998;SDS011;20549;50.042;8.968;2022-07-01T05:25:57;0.80;;;0.80;;
30998;SDS011;20549;50.042;8.968;2022-07-01T05:28:24;1.10;;;0.88;;
30998;SDS011;20549;50.042;8.968;2022-07-01T05:30:51;0.65;;;0.65;;
30998;SDS011;20549;50.042;8.968;2022-07-01T05:33:17;0.70;;;0.62;;
30998;SDS011;20549;50.042;8.968;2022-07-01T05:35:44;0.80;;;0.80;;
30998;SDS011;20549;50.042;8.968;2022-07-01T05:38:10;0.60;;;0.60;;
30998;SDS011;20549;50.042;8.968;2022-07-01T05:40:37;0.62;;;0.62;;
30998;SDS011;20549;50.042;8.968;2022-07-01T05:43:04;0.70;;;0.70;;
30998;SDS011;20549;50.042;8.968;2022-07-01T05:45:30;0.65;;;0.42;;
30998;SDS011;20549;50.042;8.968;2022-07-01T05:47:57;0.42;;;0.42;;
30998;SDS011;20549;50.042;8.968;2022-07-01T05:50:23;0.60;;;0.50;;
30998;SDS011;20549;50.042;8.968;2022-07-01T05:52:50;0.90;;;0.45;;
30998;SDS011;20549;50.042;8.968;2022-07-01T05:55:17;0.55;;;0.55;;
30998;SDS011;20549;50.042;8.968;2022-07-01T05:57:43;2.40;;;0.75;;
30998;SDS011;20549;50.042;8.968;2022-07-01T06:00:10;0.78;;;0.78;;
30998;SDS011;20549;50.042;8.968;2022-07-01T06:02:37;1.25;;;0.88;;
30998;SDS011;20549;50.042;8.968;2022-07-01T06:05:03;1.52;;;0.68;;
30998;SDS011;20549;50.042;8.968;2022-07-01T06:07:30;0.50;;;0.50;;
30998;SDS011;20549;50.042;8.968;2022-07-01T06:09:57;0.78;;;0.65;;
30998;SDS011;20549;50.042;8.968;2022-07-01T06:12:23;0.40;;;0.40;;
30998;SDS011;20549;50.042;8.968;2022-07-01T06:14:50;0.42;;;0.42;;
30998;SDS011;20549;50.042;8.968;2022-07-01T06:17:16;0.53;;;0.50;;
30998;SDS011;20549;50.042;8.968;2022-07-01T06:19:43;1.27;;;1.05;;
30998;SDS011;20549;50.042;8.968;2022-07-01T06:22:09;0.35;;;0.35;;
30998;SDS011;20549;50.042;8.968;2022-07-01T06:24:36;0.72;;;0.55;;
30998;SDS011;20549;50.042;8.968;2022-07-01T06:27:03;0.68;;;0.68;;
30998;SDS011;20549;50.042;8.968;2022-07-01T06:29:29;0.42;;;0.42;;
30998;SDS011;20549;50.042;8.968;2022-07-01T06:31:56;1.30;;;0.78;;
30998;SDS011;20549;50.042;8.968;2022-07-01T06:34:22;0.42;;;0.42;;
30998;SDS011;20549;50.042;8.968;2022-07-01T06:36:49;1.05;;;0.50;;
30998;SDS011;20549;50.042;8.968;2022-07-01T06:39:16;1.20;;;0.60;;
30998;SDS011;20549;50.042;8.968;2022-07-01T06:41:42;0.72;;;0.68;;
30998;SDS011;20549;50.042;8.968;2022-07-01T06:44:09;0.60;;;0.50;;
30998;SDS011;20549;50.042;8.968;2022-07-01T06:46:35;1.17;;;0.40;;
30998;SDS011;20549;50.042;8.968;2022-07-01T06:49:02;0.50;;;0.50;;
30998;SDS011;20549;50.042;8.968;2022-07-01T06:51:29;0.68;;;0.60;;
30998;SDS011;20549;50.042;8.968;2022-07-01T06:53:55;0.75;;;0.72;;
30998;SDS011;20549;50.042;8.968;2022-07-01T06:56:22;0.72;;;0.72;;
30998;SDS011;20549;50.042;8.968;2022-07-01T06:58:48;0.70;;;0.60;;
30998;SDS011;20549;50.042;8.968;2022-07-01T07:01:15;0.47;;;0.40;;
30998;SDS011;20549;50.042;8.968;2022-07-01T07:03:42;0.50;;;0.50;;
30998;SDS011;20549;50.042;8.968;2022-07-01T07:06:08;0.50;;;0.50;;
30998;SDS011;20549;50.042;8.968;2022-07-01T07:08:35;0.42;;;0.42;;
30998;SDS011;20549;50.042;8.968;2022-07-01T07:11:01;0.28;;;0.28;;
30998;SDS011;20549;50.042;8.968;2022-07-01T07:13:28;1.07;;;0.35;;
30998;SDS011;20549;50.042;8.968;2022-07-01T07:15:54;0.50;;;0.50;;
30998;SDS011;20549;50.042;8.968;2022-07-01T07:18:21;0.37;;;0.37;;
30998;SDS011;20549;50.042;8.968;2022-07-01T07:20:48;0.95;;;0.50;;
30998;SDS011;20549;50.042;8.968;2022-07-01T07:23:14;0.33;;;0.33;;
30998;SDS011;20549;50.042;8.968;2022-07-01T07:25:41;0.90;;;0.68;;
30998;SDS011;20549;50.042;8.968;2022-07-01T07:28:07;0.93;;;0.47;;
30998;SDS011;20549;50.042;8.968;2022-07-01T07:30:34;0.57;;;0.47;;
30998;SDS011;20549;50.042;8.968;2022-07-01T07:33:01;1.07;;;0.60;;
30998;SDS011;20549;50.042;8.968;2022-07-01T07:35:27;0.37;;;0.37;;
30998;SDS011;20549;50.042;8.968;2022-07-01T07:37:54;0.85;;;0.60;;
30998;SDS011;20549;50.042;8.968;2022-07-01T07:40:20;0.55;;;0.42;;
30998;SDS011;20549;50.042;8.968;2022-07-01T07:42:47;0.50;;;0.47;;
30998;SDS011;20549;50.042;8.968;2022-07-01T07:45:14;2.30;;;0.57;;
30998;SDS011;20549;50.042;8.968;2022-07-01T07:47:43;0.42;;;0.40;;
30998;SDS011;20549;50.042;8.968;2022-07-01T07:50:12;0.40;;;0.40;;
30998;SDS011;20549;50.042;8.968;2022-07-01T07:52:39;1.50;;;0.55;;
30998;SDS011;20549;50.042;8.968;2022-07-01T07:55:06;0.47;;;0.40;;
30998;SDS011;20549;50.042;8.968;2022-07-01T07:57:32;0.53;;;0.53;;
30998;SDS011;20549;50.042;8.968;2022-07-01T07:59:58;0.33;;;0.33;;
30998;SDS011;20549;50.042;8.968;2022-07-01T08:02:25;0.60;;;0.60;;
30998;SDS011;20549;50.042;8.968;2022-07-01T08:04:52;2.70;;;0.90;;
30998;SDS011;20549;50.042;8.968;2022-07-01T08:07:18;0.55;;;0.47;;
30998;SDS011;20549;50.042;8.968;2022-07-01T08:09:45;0.53;;;0.53;;
30998;SDS011;20549;50.042;8.968;2022-07-01T08:12:11;0.60;;;0.57;;
30998;SDS011;20549;50.042;8.968;2022-07-01T08:14:38;1.72;;;0.72;;
30998;SDS011;20549;50.042;8.968;2022-07-01T08:17:04;1.65;;;0.85;;
30998;SDS011;20549;50.042;8.968;2022-07-01T08:19:31;2.05;;;0.75;;
30998;SDS011;20549;50.042;8.968;2022-07-01T08:21:58;0.75;;;0.57;;
30998;SDS011;20549;50.042;8.968;2022-07-01T08:24:24;0.95;;;0.82;;
30998;SDS011;20549;50.042;8.968;2022-07-01T08:26:51;3.83;;;1.65;;
30998;SDS011;20549;50.042;8.968;2022-07-01T08:29:17;1.30;;;0.90;;
30998;SDS011;20549;50.042;8.968;2022-07-01T08:31:44;1.55;;;1.10;;
30998;SDS011;20549;50.042;8.968;2022-07-01T08:34:11;1.05;;;0.90;;
30998;SDS011;20549;50.042;8.968;2022-07-01T08:36:37;0.98;;;0.62;;
30998;SDS011;20549;50.042;8.968;2022-07-01T08:39:04;5.03;;;1.07;;
30998;SDS011;20549;50.042;8.968;2022-07-01T08:41:30;0.82;;;0.78;;
30998;SDS011;20549;50.042;8.968;2022-07-01T08:43:57;0.45;;;0.45;;
30998;SDS011;20549;50.042;8.968;2022-07-01T08:46:25;1.67;;;0.50;;
30998;SDS011;20549;50.042;8.968;2022-07-01T08:48:50;0.88;;;0.88;;
30998;SDS011;20549;50.042;8.968;2022-07-01T08:51:17;0.95;;;0.90;;
30998;SDS011;20549;50.042;8.968;2022-07-01T08:53:43;1.85;;;0.95;;
30998;SDS011;20549;50.042;8.968;2022-07-01T08:56:10;1.05;;;0.72;;
30998;SDS011;20549;50.042;8.968;2022-07-01T08:58:54;1.95;;;1.00;;
30998;SDS011;20549;50.042;8.968;2022-07-01T09:01:22;0.75;;;0.75;;
30998;SDS011;20549;50.042;8.968;2022-07-01T09:03:48;0.72;;;0.72;;
30998;SDS011;20549;50.042;8.968;2022-07-01T09:06:21;1.10;;;0.90;;
30998;SDS011;20549;50.042;8.968;2022-07-01T09:08:47;0.70;;;0.68;;
30998;SDS011;20549;50.042;8.968;2022-07-01T09:11:14;1.35;;;0.70;;
30998;SDS011;20549;50.042;8.968;2022-07-01T09:13:40;0.90;;;0.72;;
30998;SDS011;20549;50.042;8.968;2022-07-01T09:16:13;1.25;;;0.80;;
30998;SDS011;20549;50.042;8.968;2022-07-01T09:18:39;0.90;;;0.70;;
30998;SDS011;20549;50.042;8.968;2022-07-01T09:21:12;0.88;;;0.85;;
30998;SDS011;20549;50.042;8.968;2022-07-01T09:23:35;0.75;;;0.70;;
30998;SDS011;20549;50.042;8.968;2022-07-01T09:26:01;2.65;;;1.00;;
30998;SDS011;20549;50.042;8.968;2022-07-01T09:28:28;1.62;;;0.78;;
30998;SDS011;20549;50.042;8.968;2022-07-01T09:30:55;1.22;;;0.82;;
30998;SDS011;20549;50.042;8.968;2022-07-01T09:33:22;1.05;;;0.53;;
30998;SDS011;20549;50.042;8.968;2022-07-01T09:35:51;0.93;;;0.90;;
30998;SDS011;20549;50.042;8.968;2022-07-01T09:38:18;1.00;;;0.62;;
30998;SDS011;20549;50.042;8.968;2022-07-01T09:40:53;0.80;;;0.72;;
30998;SDS011;20549;50.042;8.968;2022-07-01T09:45:43;0.70;;;0.70;;
30998;SDS011;20549;50.042;8.968;2022-07-01T09:48:05;0.65;;;0.65;;
30998;SDS011;20549;50.042;8.968;2022-07-01T09:50:32;0.60;;;0.60;;
30998;SDS011;20549;50.042;8.968;2022-07-01T09:52:59;0.70;;;0.70;;
30998;SDS011;20549;50.042;8.968;2022-07-01T09:55:25;2.75;;;0.82;;
30998;SDS011;20549;50.042;8.968;2022-07-01T09:57:52;2.47;;;1.00;;
30998;SDS011;20549;50.042;8.968;2022-07-01T10:00:18;0.95;;;0.95;;
30998;SDS011;20549;50.042;8.968;2022-07-01T10:02:45;1.72;;;0.82;;
30998;SDS011;20549;50.042;8.968;2022-07-01T10:05:14;1.35;;;0.90;;
30998;SDS011;20549;50.042;8.968;2022-07-01T10:13:02;1.10;;;0.90;;
30998;SDS011;20549;50.042;8.968;2022-07-01T10:15:28;1.17;;;1.07;;
30998;SDS011;20549;50.042;8.968;2022-07-01T10:17:55;1.40;;;1.30;;
30998;SDS011;20549;50.042;8.968;2022-07-01T10:20:28;1.12;;;1.02;;
30998;SDS011;20549;50.042;8.968;2022-07-01T10:22:59;1.15;;;0.90;;
30998;SDS011;20549;50.042;8.968;2022-07-01T10:25:34;1.85;;;1.12;;
30998;SDS011;20549;50.042;8.968;2022-07-01T10:31:03;2.70;;;1.32;;
30998;SDS011;20549;50.042;8.968;2022-07-01T10:33:49;1.32;;;1.27;;
30998;SDS011;20549;50.042;8.968;2022-07-01T10:36:27;2.05;;;1.20;;
30998;SDS011;20549;50.042;8.968;2022-07-01T10:41:35;1.65;;;1.42;;
30998;SDS011;20549;50.042;8.968;2022-07-01T10:44:19;1.98;;;1.50;;
30998;SDS011;20549;50.042;8.968;2022-07-01T10:46:46;2.22;;;1.40;;
30998;SDS011;20549;50.042;8.968;2022-07-01T10:49:21;1.32;;;1.22;;
30998;SDS011;20549;50.042;8.968;2022-07-01T10:55:03;2.45;;;1.42;;
30998;SDS011;20549;50.042;8.968;2022-07-01T11:02:28;2.55;;;1.07;;
30998;SDS011;20549;50.042;8.968;2022-07-01T11:04:55;1.00;;;0.98;;
30998;SDS011;20549;50.042;8.968;2022-07-01T11:07:20;1.72;;;1.15;;
30998;SDS011;20549;50.042;8.968;2022-07-01T11:09:47;4.58;;;1.00;;
30998;SDS011;20549;50.042;8.968;2022-07-01T11:12:16;1.72;;;1.15;;
30998;SDS011;20549;50.042;8.968;2022-07-01T11:14:43;1.47;;;1.30;;
30998;SDS011;20549;50.042;8.968;2022-07-01T11:17:10;1.27;;;1.00;;
30998;SDS011;20549;50.042;8.968;2022-07-01T11:19:36;1.07;;;0.78;;
30998;SDS011;20549;50.042;8.968;2022-07-01T11:22:03;1.42;;;1.05;;
30998;SDS011;20549;50.042;8.968;2022-07-01T11:24:29;1.15;;;1.05;;
30998;SDS011;20549;50.042;8.968;2022-07-01T11:27:00;1.37;;;1.12;;
30998;SDS011;20549;50.042;8.968;2022-07-01T11:29:27;1.45;;;0.90;;
30998;SDS011;20549;50.042;8.968;2022-07-01T11:31:52;1.55;;;1.20;;
30998;SDS011;20549;50.042;8.968;2022-07-01T11:34:19;1.57;;;1.05;;
30998;SDS011;20549;50.042;8.968;2022-07-01T11:36:46;2.02;;;1.22;;
30998;SDS011;20549;50.042;8.968;2022-07-01T11:39:30;1.40;;;0.88;;
30998;SDS011;20549;50.042;8.968;2022-07-01T11:41:57;1.77;;;0.78;;
30998;SDS011;20549;50.042;8.968;2022-07-01T11:44:39;1.45;;;0.90;;
30998;SDS011;20549;50.042;8.968;2022-07-01T11:47:08;1.82;;;1.02;;
30998;SDS011;20549;50.042;8.968;2022-07-01T11:49:42;2.90;;;1.02;;
30998;SDS011;20549;50.042;8.968;2022-07-01T11:52:02;1.65;;;1.00;;
30998;SDS011;20549;50.042;8.968;2022-07-01T11:54:27;1.52;;;0.98;;
30998;SDS011;20549;50.042;8.968;2022-07-01T11:56:54;2.17;;;0.88;;
30998;SDS011;20549;50.042;8.968;2022-07-01T11:59:21;0.75;;;0.70;;
30998;SDS011;20549;50.042;8.968;2022-07-01T12:01:51;1.17;;;1.07;;
30998;SDS011;20549;50.042;8.968;2022-07-01T12:04:17;1.50;;;0.75;;
30998;SDS011;20549;50.042;8.968;2022-07-01T12:06:43;1.12;;;1.02;;
30998;SDS011;20549;50.042;8.968;2022-07-01T12:09:13;2.02;;;0.68;;
30998;SDS011;20549;50.042;8.968;2022-07-01T12:11:39;0.75;;;0.70;;
30998;SDS011;20549;50.042;8.968;2022-07-01T12:14:06;1.02;;;0.90;;
30998;SDS011;20549;50.042;8.968;2022-07-01T12:16:39;1.75;;;0.90;;
30998;SDS011;20549;50.042;8.968;2022-07-01T12:19:05;1.15;;;0.93;;
30998;SDS011;20549;50.042;8.968;2022-07-01T12:21:36;1.15;;;0.80;;
30998;SDS011;20549;50.042;8.968;2022-07-01T12:24:03;0.85;;;0.70;;
30998;SDS011;20549;50.042;8.968;2022-07-01T12:26:29;0.70;;;0.70;;
30998;SDS011;20549;50.042;8.968;2022-07-01T12:28:55;0.72;;;0.70;;
30998;SDS011;20549;50.042;8.968;2022-07-01T12:31:22;2.08;;;0.90;;
30998;SDS011;20549;50.042;8.968;2022-07-01T12:33:49;1.35;;;0.90;;
30998;SDS011;20549;50.042;8.968;2022-07-01T12:36:15;1.12;;;0.90;;
30998;SDS011;20549;50.042;8.968;2022-07-01T12:38:42;0.80;;;0.68;;
30998;SDS011;20549;50.042;8.968;2022-07-01T12:43:57;1.77;;;0.93;;
30998;SDS011;20549;50.042;8.968;2022-07-01T12:46:27;1.50;;;0.75;;
30998;SDS011;20549;50.042;8.968;2022-07-01T12:48:52;1.05;;;0.90;;
30998;SDS011;20549;50.042;8.968;2022-07-01T12:51:19;3.05;;;1.00;;
30998;SDS011;20549;50.042;8.968;2022-07-01T12:53:46;0.90;;;0.90;;
30998;SDS011;20549;50.042;8.968;2022-07-01T12:56:22;0.98;;;0.62;;
30998;SDS011;20549;50.042;8.968;2022-07-01T12:58:48;0.53;;;0.50;;
30998;SDS011;20549;50.042;8.968;2022-07-01T13:01:15;1.40;;;0.95;;
30998;SDS011;20549;50.042;8.968;2022-07-01T13:03:41;1.37;;;0.90;;
30998;SDS011;20549;50.042;8.968;2022-07-01T13:06:08;1.80;;;1.02;;
30998;SDS011;20549;50.042;8.968;2022-07-01T13:08:34;0.70;;;0.70;;
30998;SDS011;20549;50.042;8.968;2022-07-01T13:11:01;1.75;;;0.90;;
30998;SDS011;20549;50.042;8.968;2022-07-01T13:13:28;1.72;;;0.90;;
30998;SDS011;20549;50.042;8.968;2022-07-01T13:15:54;1.35;;;0.78;;
30998;SDS011;20549;50.042;8.968;2022-07-01T13:18:21;0.78;;;0.70;;
30998;SDS011;20549;50.042;8.968;2022-07-01T13:20:47;1.12;;;0.68;;
30998;SDS011;20549;50.042;8.968;2022-07-01T13:23:14;1.22;;;0.80;;
30998;SDS011;20549;50.042;8.968;2022-07-01T13:25:41;0.50;;;0.50;;
30998;SDS011;20549;50.042;8.968;2022-07-01T13:28:07;0.75;;;0.50;;
30998;SDS011;20549;50.042;8.968;2022-07-01T13:30:34;1.40;;;0.60;;
30998;SDS011;20549;50.042;8.968;2022-07-01T13:33:00;0.70;;;0.70;;
30998;SDS011;20549;50.042;8.968;2022-07-01T13:35:27;0.65;;;0.60;;
30998;SDS011;20549;50.042;8.968;2022-07-01T13:37:54;0.57;;;0.57;;
30998;SDS011;20549;50.042;8.968;2022-07-01T13:40:20;1.70;;;0.60;;
30998;SDS011;20549;50.042;8.968;2022-07-01T13:42:47;1.22;;;0.70;;
30998;SDS011;20549;50.042;8.968;2022-07-01T13:45:13;0.60;;;0.60;;
30998;SDS011;20549;50.042;8.968;2022-07-01T13:47:40;0.50;;;0.50;;
30998;SDS011;20549;50.042;8.968;2022-07-01T13:50:07;0.65;;;0.65;;
30998;SDS011;20549;50.042;8.968;2022-07-01T13:52:33;0.75;;;0.55;;
30998;SDS011;20549;50.042;8.968;2022-07-01T13:55:00;1.55;;;0.82;;
30998;SDS011;20549;50.042;8.968;2022-07-01T13:57:26;1.70;;;0.68;;
30998;SDS011;20549;50.042;8.968;2022-07-01T13:59:53;0.60;;;0.50;;
30998;SDS011;20549;50.042;8.968;2022-07-01T14:02:19;1.98;;;0.85;;
30998;SDS011;20549;50.042;8.968;2022-07-01T14:04:46;0.65;;;0.65;;
30998;SDS011;20549;50.042;8.968;2022-07-01T14:07:13;2.65;;;0.70;;
30998;SDS011;20549;50.042;8.968;2022-07-01T14:09:39;0.90;;;0.90;;
30998;SDS011;20549;50.042;8.968;2022-07-01T14:12:06;0.57;;;0.40;;
30998;SDS011;20549;50.042;8.968;2022-07-01T14:14:32;1.77;;;0.57;;
30998;SDS011;20549;50.042;8.968;2022-07-01T14:16:59;0.60;;;0.60;;
30998;SDS011;20549;50.042;8.968;2022-07-01T14:19:25;1.85;;;0.70;;
30998;SDS011;20549;50.042;8.968;2022-07-01T14:21:53;0.80;;;0.80;;
30998;SDS011;20549;50.042;8.968;2022-07-01T14:24:19;0.68;;;0.68;;
30998;SDS011;20549;50.042;8.968;2022-07-01T14:26:45;0.72;;;0.60;;
30998;SDS011;20549;50.042;8.968;2022-07-01T14:29:12;0.60;;;0.60;;
30998;SDS011;20549;50.042;8.968;2022-07-01T14:31:38;1.65;;;0.78;;
30998;SDS011;20549;50.042;8.968;2022-07-01T14:34:05;1.42;;;0.57;;
30998;SDS011;20549;50.042;8.968;2022-07-01T14:36:32;1.20;;;0.80;;
30998;SDS011;20549;50.042;8.968;2022-07-01T14:38:58;0.40;;;0.40;;
30998;SDS011;20549;50.042;8.968;2022-07-01T14:41:26;1.80;;;0.90;;
30998;SDS011;20549;50.042;8.968;2022-07-01T14:43:51;1.07;;;0.75;;
30998;SDS011;20549;50.042;8.968;2022-07-01T14:46:18;1.27;;;0.55;;
30998;SDS011;20549;50.042;8.968;2022-07-01T14:48:45;0.70;;;0.70;;
30998;SDS011;20549;50.042;8.968;2022-07-01T14:51:11;1.37;;;0.70;;
30998;SDS011;20549;50.042;8.968;2022-07-01T14:53:38;0.40;;;0.40;;
30998;SDS011;20549;50.042;8.968;2022-07-01T14:56:04;0.98;;;0.55;;
30998;SDS011;20549;50.042;8.968;2022-07-01T14:58:31;0.75;;;0.60;;
30998;SDS011;20549;50.042;8.968;2022-07-01T15:00:57;0.60;;;0.45;;
30998;SDS011;20549;50.042;8.968;2022-07-01T15:03:24;2.98;;;1.62;;
30998;SDS011;20549;50.042;8.968;2022-07-01T15:05:51;0.88;;;0.68;;
30998;SDS011;20549;50.042;8.968;2022-07-01T15:08:17;0.57;;;0.57;;
30998;SDS011;20549;50.042;8.968;2022-07-01T15:10:44;0.82;;;0.57;;
30998;SDS011;20549;50.042;8.968;2022-07-01T15:13:10;0.50;;;0.47;;